Time;durP1;ratioP1;P1;durP2;ratioP2;P2;SDS_P1;SDS_P2;PMS_P1;PMS_P2;Temp;Humidity;BMP_temperature;BMP_pressure;BME280_temperature;BME280_humidity;BME280_pressure;Samples;Min_cycle;Max_cycle;Signal;HPM_P1;HPM_P2
2022/08/04 00:02:25;;;;;;;6.57;1.77;;;;;;;20.66;100.00;100780.00;4920206;29;20438;-92
2022/08/04 00:05:01;;;;;;;6.18;2.10;;;;;;;20.75;100.00;100799.25;4920976;29;20420;-89
2022/08/04 00:07:39;;;;;;;4.68;1.90;;;;;;;20.76;100.00;100803.63;4920309;29;20423;-90
2022/08/04 00:10:17;;;;;;;6.72;2.00;;;;;;;20.65;100.00;100788.63;4937721;29;20438;-92
2022/08/04 00:12:49;;;;;;;4.97;2.05;;;;;;;20.44;100.00;100759.13;4920890;29;20415;-90
2022/08/04 00:15:24;;;;;;;5.55;2.10;;;;;;;20.60;100.00;100803.47;4919985;29;20427;-90
2022/08/04 00:18:01;;;;;;;5.00;2.15;;;;;;;20.52;100.00;100793.34;4920063;29;20446;-91
2022/08/04 00:20:37;;;;;;;9.85;2.20;;;;;;;20.51;100.00;100808.34;4920208;29;20428;-90
2022/08/04 00:23:13;;;;;;;5.47;1.95;;;;;;;20.53;100.00;100808.78;4919637;29;20434;-91
2022/08/04 00:25:43;;;;;;;6.38;2.20;;;;;;;20.35;100.00;100805.41;4921048;29;20435;-90
2022/08/04 00:28:16;;;;;;;7.20;2.10;;;;;;;20.31;100.00;100815.53;4937730;29;20431;-92
2022/08/04 00:30:51;;;;;;;5.38;2.10;;;;;;;20.20;100.00;100791.13;4936138;29;20436;-91
2022/08/04 00:33:20;;;;;;;6.07;2.20;;;;;;;20.24;100.00;100802.28;4920585;29;20434;-90
2022/08/04 00:35:54;;;;;;;6.47;2.20;;;;;;;20.08;100.00;100782.00;4937510;29;20427;-91
2022/08/04 00:38:29;;;;;;;7.13;2.35;;;;;;;20.21;100.00;100812.06;4920509;29;20450;-91
2022/08/04 00:41:16;;;;;;;5.90;2.45;;;;;;;20.17;100.00;100813.09;4937282;29;20995;-91
2022/08/04 00:44:08;;;;;;;8.60;2.35;;;;;;;20.05;100.00;100789.84;4921076;29;20427;-93
2022/08/04 00:46:54;;;;;;;8.15;2.58;;;;;;;19.89;100.00;100766.78;4937305;29;20892;-92
2022/08/04 00:49:48;;;;;;;6.00;2.22;;;;;;;20.16;100.00;100815.06;4921977;29;20436;-90
2022/08/04 00:52:32;;;;;;;4.37;2.13;;;;;;;20.13;100.00;100799.16;4935726;29;20438;-91
2022/08/04 00:55:29;;;;;;;6.77;2.10;;;;;;;20.19;100.00;100800.56;4912650;29;20437;-93
2022/08/04 00:58:22;;;;;;;8.82;2.30;;;;;;;20.26;100.00;100807.47;4918030;29;20431;-90
2022/08/04 01:00:59;;;;;;;5.68;2.38;;;;;;;20.24;100.00;100807.81;4930526;29;20904;-90
2022/08/04 01:03:49;;;;;;;6.93;2.25;;;;;;;20.25;100.00;100797.59;4936186;29;20438;-91
2022/08/04 01:06:35;;;;;;;6.55;2.50;;;;;;;20.35;100.00;100800.69;4921278;29;20435;-92
2022/08/04 01:09:24;;;;;;;8.38;2.33;;;;;;;20.03;100.00;100771.97;4911323;29;20437;-91
2022/08/04 01:12:17;;;;;;;5.23;2.53;;;;;;;20.10;100.00;100799.06;4931774;29;20427;-94
2022/08/04 01:15:03;;;;;;;7.37;2.80;;;;;;;19.98;100.00;100802.56;4932684;29;20789;-91
2022/08/04 01:17:43;;;;;;;7.43;2.72;;;;;;;19.95;100.00;100803.25;4940299;29;20425;-89
2022/08/04 01:20:17;;;;;;;11.30;3.00;;;;;;;19.86;100.00;100806.91;4919435;29;20427;-90
2022/08/04 01:23:36;;;;;;;9.13;2.75;;;;;;;20.03;100.00;100794.88;4928677;29;20448;-90
2022/08/04 01:26:39;;;;;;;7.47;2.70;;;;;;;20.09;100.00;100791.91;4900387;29;20441;-89
2022/08/04 01:29:11;;;;;;;8.57;2.90;;;;;;;19.92;100.00;100793.69;4910730;29;20436;-91
2022/08/04 01:31:50;;;;;;;6.07;2.63;;;;;;;19.87;100.00;100789.22;4911830;29;20454;-90
2022/08/04 01:34:21;;;;;;;5.97;2.70;;;;;;;19.87;100.00;100791.97;4918748;29;20416;-92
2022/08/04 01:36:59;;;;;;;6.50;2.40;;;;;;;19.90;100.00;100792.41;4918397;29;20436;-93
2022/08/04 01:39:41;;;;;;;6.20;2.47;;;;;;;19.97;100.00;100798.19;4921490;29;20432;-94
2022/08/04 01:42:11;;;;;;;6.30;2.58;;;;;;;19.56;100.00;100734.44;4928231;29;20440;-91
2022/08/04 01:44:41;;;;;;;8.38;2.35;;;;;;;19.68;100.00;100736.44;4927649;29;20458;-91
2022/08/04 01:47:10;;;;;;;7.93;2.88;;;;;;;19.95;100.00;100786.69;4918554;29;20430;-90
2022/08/04 01:49:49;;;;;;;7.28;3.25;;;;;;;19.94;100.00;100783.13;4914289;29;20417;-91
2022/08/04 01:52:24;;;;;;;8.63;2.80;;;;;;;19.86;100.00;100787.59;4909202;29;21137;-92
2022/08/04 01:54:57;;;;;;;13.98;3.22;;;;;;;19.84;100.00;100778.03;4918892;29;20438;-92
2022/08/04 01:57:28;;;;;;;8.75;3.10;;;;;;;19.74;100.00;100761.88;4935443;29;20455;-91
2022/08/04 02:00:06;;;;;;;6.40;2.75;;;;;;;19.62;100.00;100743.28;4918617;29;20435;-92
2022/08/04 02:02:34;;;;;;;7.85;3.00;;;;;;;19.91;100.00;100775.50;4925321;29;20431;-89
2022/08/04 02:05:11;;;;;;;7.22;3.10;;;;;;;19.77;100.00;100783.28;4935137;29;20428;-90
2022/08/04 02:07:59;;;;;;;9.60;3.10;;;;;;;19.75;100.00;100772.56;4928304;29;20404;-91
2022/08/04 02:10:29;;;;;;;8.82;2.80;;;;;;;19.84;100.00;100778.81;4935199;29;20811;-91
2022/08/04 02:13:10;;;;;;;7.18;3.40;;;;;;;19.80;100.00;100775.13;4917878;29;20431;-89
2022/08/04 02:15:57;;;;;;;8.18;3.42;;;;;;;19.77;100.00;100775.00;4926755;29;20446;-91
2022/08/04 02:18:33;;;;;;;7.68;3.05;;;;;;;19.82;100.00;100777.56;4917950;29;20772;-93
2022/08/04 02:21:06;;;;;;;9.05;3.42;;;;;;;19.76;100.00;100773.38;4927481;29;20444;-91
2022/08/04 02:23:41;;;;;;;7.10;3.33;;;;;;;19.61;100.00;100764.59;4929427;29;20460;-92
2022/08/04 02:26:17;;;;;;;9.15;3.35;;;;;;;19.63;100.00;100778.84;4909410;29;20432;-91
2022/08/04 02:28:58;;;;;;;7.43;3.05;;;;;;;19.61;100.00;100770.09;4918210;29;20412;-91
2022/08/04 02:31:38;;;;;;;7.50;3.40;;;;;;;19.59;100.00;100774.34;4933159;29;20439;-92
2022/08/04 02:34:17;;;;;;;11.38;3.70;;;;;;;19.61;100.00;100777.56;4917493;29;20439;-92
2022/08/04 02:36:52;;;;;;;7.80;3.53;;;;;;;19.54;100.00;100762.38;4934908;29;20431;-92
2022/08/04 02:39:22;;;;;;;9.40;3.70;;;;;;;19.45;100.00;100766.34;4917217;29;20428;-90
2022/08/04 02:41:56;;;;;;;9.00;3.40;;;;;;;19.32;100.00;100762.72;4917531;29;20525;-94
2022/08/04 02:44:31;;;;;;;7.63;3.50;;;;;;;19.20;100.00;100775.31;4934655;29;20438;-91
2022/08/04 02:47:07;;;;;;;8.95;3.60;;;;;;;19.19;100.00;100770.13;4917128;29;20428;-92
2022/08/04 02:49:37;;;;;;;8.90;3.38;;;;;;;19.19;100.00;100768.16;4925058;29;21132;-92
2022/08/04 02:52:11;;;;;;;9.67;4.07;;;;;;;19.19;100.00;100767.38;4932955;29;20447;-93
2022/08/04 02:54:46;;;;;;;8.75;4.00;;;;;;;19.18;100.00;100757.47;4928269;29;20784;-91
2022/08/04 02:57:23;;;;;;;9.10;3.90;;;;;;;19.22;100.00;100766.69;4917106;29;20435;-92
2022/08/04 03:00:08;;;;;;;11.43;4.50;;;;;;;19.25;100.00;100763.28;4934913;29;20427;-93
2022/08/04 03:02:59;;;;;;;11.57;5.30;;;;;;;19.16;100.00;100766.09;4924239;29;20796;-92
2022/08/04 03:05:39;;;;;;;12.18;5.35;;;;;;;19.09;100.00;100774.09;4917612;29;20432;-92
2022/08/04 03:08:33;;;;;;;9.60;4.75;;;;;;;19.14;100.00;100765.63;4916568;29;20428;-90
2022/08/04 03:11:44;;;;;;;7.88;4.15;;;;;;;19.26;100.00;100766.84;4920565;29;20426;-92
2022/08/04 03:14:46;;;;;;;10.10;4.57;;;;;;;19.28;100.00;100757.06;4915089;29;20437;-91
2022/08/04 03:17:38;;;;;;;10.85;4.97;;;;;;;19.26;100.00;100762.09;4915408;29;20454;-93
2022/08/04 03:20:33;;;;;;;10.48;4.88;;;;;;;19.29;100.00;100757.88;4926242;29;20443;-91
2022/08/04 03:23:26;;;;;;;11.60;4.97;;;;;;;19.14;100.00;100762.03;4931086;29;20427;-91
2022/08/04 03:26:27;;;;;;;10.75;5.47;;;;;;;19.15;100.00;100761.69;4913732;29;20442;-94
2022/08/04 03:29:46;;;;;;;11.13;4.70;;;;;;;19.16;100.00;100766.09;4923784;29;20460;-91
2022/08/04 03:32:51;;;;;;;10.85;5.03;;;;;;;19.18;100.00;100762.97;4940163;29;20419;-91
2022/08/04 03:35:47;;;;;;;9.70;4.72;;;;;;;19.03;100.00;100758.91;4922511;29;20432;-92
2022/08/04 03:38:44;;;;;;;10.80;5.05;;;;;;;19.08;100.00;100758.69;4929514;29;20444;-92
2022/08/04 03:41:48;;;;;;;10.27;5.80;;;;;;;19.13;100.00;100752.16;4930702;29;20408;-91
2022/08/04 03:44:50;;;;;;;13.10;6.32;;;;;;;19.06;100.00;100760.16;4923733;29;20435;-93
2022/08/04 03:48:03;;;;;;;12.80;6.25;;;;;;;19.05;100.00;100759.34;4916097;29;20438;-90
2022/08/04 03:54:02;;;;;;;10.95;5.47;;;;;;;19.16;100.00;100760.56;4901973;29;20435;-91
2022/08/04 03:56:49;;;;;;;10.65;4.88;;;;;;;18.98;100.00;100750.81;4933014;29;20423;-93
2022/08/04 03:59:40;;;;;;;13.05;5.15;;;;;;;19.03;100.00;100773.50;4933501;29;20427;-92
2022/08/04 04:02:37;;;;;;;10.98;5.70;;;;;;;19.11;100.00;100769.06;4927627;29;20435;-91
2022/08/04 04:05:29;;;;;;;11.98;5.35;;;;;;;19.08;100.00;100772.47;4916327;29;20773;-93
2022/08/04 04:08:27;;;;;;;12.52;5.80;;;;;;;18.95;100.00;100752.28;4911433;29;20427;-91
2022/08/04 04:11:33;;;;;;;13.27;5.60;;;;;;;19.12;100.00;100770.66;4932956;29;20435;-91
2022/08/04 04:14:15;;;;;;;9.73;5.55;;;;;;;18.98;100.00;100751.63;4913908;29;20523;-91
2022/08/04 04:17:09;;;;;;;9.75;5.28;;;;;;;19.19;100.00;100768.16;4931313;29;20805;-91
2022/08/04 04:19:59;;;;;;;10.93;5.03;;;;;;;19.21;100.00;100762.34;4929230;29;20423;-91
2022/08/04 04:22:51;;;;;;;10.00;5.13;;;;;;;19.23;100.00;100768.31;4909189;29;20437;-92
2022/08/04 04:25:35;;;;;;;12.85;5.45;;;;;;;19.21;100.00;100770.63;4931075;29;20431;-91
2022/08/04 04:28:27;;;;;;;11.60;5.65;;;;;;;19.17;100.00;100761.38;4921984;29;20503;-91
2022/08/04 04:31:09;;;;;;;12.10;5.15;;;;;;;19.20;100.00;100764.25;4919537;29;20424;-92
2022/08/04 04:33:58;;;;;;;16.33;6.50;;;;;;;19.20;100.00;100753.22;4920060;29;20435;-93
2022/08/04 04:36:34;;;;;;;12.85;5.60;;;;;;;19.24;100.00;100755.31;4920110;29;20435;-92
2022/08/04 04:39:17;;;;;;;11.10;5.78;;;;;;;19.40;100.00;100761.03;4921961;29;20427;-92
2022/08/04 04:42:07;;;;;;;12.77;5.90;;;;;;;19.38;100.00;100764.13;4916388;29;20796;-88
2022/08/04 04:44:55;;;;;;;10.93;5.95;;;;;;;19.28;100.00;100768.13;4925729;29;20451;-89
2022/08/04 04:47:32;;;;;;;14.02;6.13;;;;;;;19.29;100.00;100769.75;4923264;29;20926;-90
2022/08/04 04:50:08;;;;;;;13.05;5.47;;;;;;;19.45;100.00;100766.34;4911797;29;20818;-90
2022/08/04 04:52:45;;;;;;;12.82;5.50;;;;;;;19.60;100.00;100767.69;4933792;29;20884;-92
2022/08/04 04:55:22;;;;;;;11.63;5.40;;;;;;;19.64;100.00;100761.13;4938522;29;20435;-91
2022/08/04 04:57:59;;;;;;;12.20;5.60;;;;;;;19.67;100.00;100762.41;4936469;29;20427;-91
2022/08/04 05:01:10;;;;;;;10.17;5.33;;;;;;;19.76;100.00;100754.88;4920037;29;20439;-91
2022/08/04 05:03:52;;;;;;;11.20;5.25;;;;;;;19.75;100.00;100755.19;4930679;29;20423;-90
2022/08/04 05:06:52;;;;;;;10.53;5.27;;;;;;;19.82;100.00;100752.72;4920310;29;20431;-92
2022/08/04 05:09:37;;;;;;;12.07;4.95;;;;;;;20.04;100.00;100754.25;4918583;29;20451;-90
2022/08/04 05:12:40;;;;;;;10.38;4.90;;;;;;;20.76;100.00;100753.06;4936167;29;20426;-91
2022/08/04 05:15:17;;;;;;;10.10;4.67;;;;;;;21.53;100.00;100744.66;4925841;29;20506;-90
2022/08/04 05:17:53;;;;;;;11.02;5.20;;;;;;;23.18;100.00;100744.34;4919934;29;20435;-90
2022/08/04 05:20:34;;;;;;;10.57;4.80;;;;;;;24.52;100.00;100735.66;4920983;29;20901;-91
2022/08/04 05:23:13;;;;;;;8.32;4.43;;;;;;;25.94;100.00;100728.69;4915092;29;20442;-91
2022/08/04 05:25:46;;;;;;;8.20;4.40;;;;;;;26.80;100.00;100734.13;4935458;29;20450;-89
2022/08/04 05:28:24;;;;;;;8.65;4.00;;;;;;;27.48;100.00;100736.44;4933653;29;20427;-90
2022/08/04 05:31:01;;;;;;;9.43;3.92;;;;;;;27.65;100.00;100723.72;4922654;29;20770;-91
2022/08/04 05:33:39;;;;;;;7.85;3.60;;;;;;;27.21;100.00;100731.16;4934686;29;20475;-87
2022/08/04 05:36:17;;;;;;;6.72;2.90;;;;;;;27.90;100.00;100729.34;4931521;29;20937;-91
2022/08/04 05:38:54;;;;;;;6.30;3.03;;;;;;;26.85;100.00;100724.59;4922708;29;20442;-91
2022/08/04 05:41:22;;;;;;;8.57;3.15;;;;;;;25.78;100.00;100713.00;4933428;29;20433;-90
2022/08/04 05:43:51;;;;;;;6.63;2.97;;;;;;;24.77;100.00;100719.34;4920097;29;20439;-92
2022/08/04 05:46:27;;;;;;;6.38;2.97;;;;;;;24.30;100.00;100724.19;4924696;29;20427;-89
2022/08/04 05:49:01;;;;;;;7.40;3.10;;;;;;;23.39;100.00;100720.97;4925385;29;20459;-89
2022/08/04 05:51:31;;;;;;;8.90;3.50;;;;;;;23.36;100.00;100713.38;4925692;29;20435;-90
2022/08/04 05:54:00;;;;;;;8.63;3.28;;;;;;;23.30;100.00;100723.16;4935631;29;20438;-89
2022/08/04 05:56:36;;;;;;;10.83;3.50;;;;;;;23.08;100.00;100712.38;4933629;29;20909;-89
2022/08/04 05:59:06;;;;;;;8.65;3.67;;;;;;;23.09;100.00;100719.56;4932434;29;20918;-88
2022/08/04 06:01:41;;;;;;;8.27;3.22;;;;;;;23.08;100.00;100712.38;4919970;29;20436;-88
2022/08/04 06:04:10;;;;;;;10.23;3.47;;;;;;;23.01;100.00;100712.25;4917121;29;20442;-87
2022/08/04 06:06:45;;;;;;;7.32;3.08;;;;;;;23.08;100.00;100692.94;4929942;29;20439;-87
2022/08/04 06:09:13;;;;;;;7.00;2.65;;;;;;;23.32;100.00;100710.50;4929369;29;20431;-87
2022/08/04 06:11:49;;;;;;;6.30;2.70;;;;;;;23.26;100.00;100718.34;4929212;29;20428;-85
2022/08/04 06:14:20;;;;;;;7.80;2.80;;;;;;;23.18;100.00;100722.13;4920234;29;20455;-88
2022/08/04 06:16:55;;;;;;;7.03;2.70;;;;;;;23.27;100.00;100710.81;4918985;29;20788;-81
2022/08/04 06:19:27;;;;;;;6.40;2.97;;;;;;;23.50;100.00;100707.28;4924614;29;20434;-82
2022/08/04 06:22:03;;;;;;;7.80;2.80;;;;;;;23.38;100.00;100711.84;4922001;29;20435;-86
2022/08/04 06:24:39;;;;;;;7.00;2.40;;;;;;;23.53;100.00;100715.69;4914999;29;20443;-88
2022/08/04 06:27:13;;;;;;;5.72;2.33;;;;;;;23.57;100.00;100699.06;4934514;29;20423;-87
2022/08/04 06:29:43;;;;;;;7.72;2.53;;;;;;;23.67;100.00;100706.81;4921358;29;20461;-87
2022/08/04 06:32:27;;;;;;;6.55;2.47;;;;;;;23.87;100.00;100713.13;4929998;29;20442;-88
2022/08/04 06:35:01;;;;;;;7.97;2.53;;;;;;;23.90;100.00;100704.06;4916951;29;20910;-87
2022/08/04 06:37:31;;;;;;;7.55;2.50;;;;;;;24.00;100.00;100708.22;4922027;29;20445;-87
2022/08/04 06:40:09;;;;;;;5.40;2.33;;;;;;;24.16;100.00;100710.06;4916183;29;20454;-87
2022/08/04 06:42:43;;;;;;;6.50;2.10;;;;;;;24.25;100.00;100705.84;4905037;29;20455;-87
2022/08/04 06:45:17;;;;;;;6.95;2.60;;;;;;;24.21;100.00;100707.75;4900588;29;20432;-86
2022/08/04 06:47:48;;;;;;;5.55;1.98;;;;;;;24.30;100.00;100698.38;4911830;29;20436;-87
2022/08/04 06:50:23;;;;;;;8.38;2.30;;;;;;;24.30;100.00;100695.59;4914094;29;20458;-87
2022/08/04 06:52:56;;;;;;;6.68;2.30;;;;;;;24.20;100.00;100695.03;4901512;29;20446;-87
2022/08/04 06:55:31;;;;;;;5.70;2.25;;;;;;;24.45;100.00;100689.84;4918402;29;20450;-88
2022/08/04 06:58:01;;;;;;;5.70;2.53;;;;;;;24.58;100.00;100690.44;4898311;29;20458;-86
2022/08/04 07:00:53;;;;;;;7.17;2.67;;;;;;;24.51;100.00;100686.75;4914151;29;20435;-85
2022/08/04 07:03:34;;;;;;;5.63;2.70;;;;;;;24.22;100.00;100687.13;4913510;29;20450;-86
2022/08/04 07:06:08;;;;;;;5.93;2.50;;;;;;;24.09;100.00;100680.97;4914119;29;20431;-88
2022/08/04 07:08:42;;;;;;;5.83;2.50;;;;;;;24.18;100.00;100689.06;4897686;29;20431;-87
2022/08/04 07:11:11;;;;;;;7.53;2.40;;;;;;;24.39;100.00;100685.78;4907074;29;21780;-86
2022/08/04 07:13:45;;;;;;;5.95;2.20;;;;;;;24.55;100.00;100688.41;4901362;29;20451;-86
2022/08/04 07:16:21;;;;;;;6.45;2.28;;;;;;;24.64;100.00;100665.09;4895548;29;20435;-87
2022/08/04 07:18:57;;;;;;;6.63;2.25;;;;;;;24.88;100.00;100677.75;4912292;29;20826;-88
2022/08/04 07:21:31;;;;;;;3.97;2.05;;;;;;;25.11;100.00;100684.00;4893843;29;20444;-88
2022/08/04 07:24:04;;;;;;;6.38;2.38;;;;;;;25.26;100.00;100681.38;4891171;29;21006;-87
2022/08/04 07:26:35;;;;;;;4.20;1.80;;;;;;;25.29;100.00;100684.19;4896676;29;20458;-85
2022/08/04 07:29:04;;;;;;;5.50;1.90;;;;;;;25.49;100.00;100672.88;4897252;29;20478;-84
2022/08/04 07:31:37;;;;;;;6.60;1.98;;;;;;;25.67;100.00;100675.84;4916493;29;20427;-86
2022/08/04 07:34:08;;;;;;;3.95;2.00;;;;;;;25.86;100.00;100674.81;4900065;29;20832;-87
2022/08/04 07:36:41;;;;;;;5.05;2.13;;;;;;;25.93;100.00;100672.09;4899901;29;21306;-87
2022/08/04 07:39:14;;;;;;;5.50;2.20;;;;;;;26.21;100.00;100676.34;4915339;29;20446;-86
2022/08/04 07:41:50;;;;;;;4.72;1.90;;;;;;;26.34;100.00;100673.25;4917904;29;21003;-85
2022/08/04 07:44:18;;;;;;;4.43;2.00;;;;;;;26.45;100.00;100674.09;4899244;29;20451;-88
2022/08/04 07:46:47;;;;;;;4.45;1.90;;;;;;;26.52;100.00;100674.13;4894362;29;21013;-85
2022/08/04 07:49:17;;;;;;;5.10;1.83;;;;;;;26.65;100.00;100669.03;4901883;29;20451;-86
2022/08/04 07:51:46;;;;;;;5.53;1.85;;;;;;;26.63;100.00;100666.63;4914252;29;20474;-86
2022/08/04 07:54:15;;;;;;;6.03;2.10;;;;;;;26.72;100.00;100659.91;4900516;29;20454;-86
2022/08/04 07:56:48;;;;;;;5.88;2.00;;;;;;;26.96;100.00;100653.63;4918263;29;20438;-87
2022/08/04 07:59:22;;;;;;;5.68;1.92;;;;;;;27.24;100.00;100670.88;4917560;29;20435;-87
2022/08/04 08:01:59;;;;;;;6.05;1.75;;;;;;;27.46;100.00;100660.59;4917995;29;21084;-86
2022/08/04 08:04:34;;;;;;;4.63;1.70;;;;;;;27.57;100.00;100657.81;4919494;29;20439;-86
2022/08/04 08:07:06;;;;;;;5.93;1.80;;;;;;;27.67;100.00;100657.00;4908997;29;20427;-86
2022/08/04 08:09:34;;;;;;;5.20;1.83;;;;;;;27.65;100.00;100659.44;4917528;29;20435;-86
2022/08/04 08:12:03;;;;;;;4.77;1.70;;;;;;;27.68;100.00;100658.63;4915677;29;20439;-87
2022/08/04 08:14:33;;;;;;;6.32;1.70;;;;;;;27.84;100.00;100652.63;4918362;29;20431;-87
2022/08/04 08:17:05;;;;;;;7.07;1.90;;;;;;;27.78;100.00;100637.44;4901437;29;20457;-88
2022/08/04 08:19:44;;;;;;;4.35;1.75;;;;;;;27.77;100.00;100633.06;4912731;29;20462;-87
2022/08/04 08:22:21;;;;;;;4.35;1.60;;;;;;;28.08;100.00;100650.25;4906880;29;20451;-87
2022/08/04 08:24:49;;;;;;;4.75;1.63;;;;;;;28.21;100.00;100642.25;4901750;29;20947;-87
2022/08/04 08:27:18;;;;;;;5.72;1.70;;;;;;;28.41;100.00;100617.41;4906017;29;20431;-85
2022/08/04 08:29:47;;;;;;;4.77;1.87;;;;;;;28.55;99.19;100639.75;4899841;29;20451;-87
2022/08/04 08:32:20;;;;;;;5.18;2.08;;;;;;;28.39;98.17;100639.41;4919207;29;20442;-85
2022/08/04 08:34:50;;;;;;;7.93;1.85;;;;;;;28.45;100.00;100644.19;4916002;29;20435;-86
2022/08/04 08:37:29;;;;;;;5.20;1.80;;;;;;;28.44;97.31;100634.19;4918192;29;20439;-86
2022/08/04 08:40:23;;;;;;;4.57;2.00;;;;;;;28.76;95.78;100632.50;4895620;29;20451;-85
2022/08/04 08:43:11;;;;;;;4.85;1.92;;;;;;;28.99;88.00;100637.63;4901683;29;20448;-84
2022/08/04 08:46:24;;;;;;;4.53;2.10;;;;;;;29.16;92.52;100633.09;4899985;29;20977;-85
2022/08/04 08:49:37;;;;;;;4.38;2.05;;;;;;;29.20;95.08;100638.69;4889909;29;20439;-86
2022/08/04 08:52:24;;;;;;;5.20;1.80;;;;;;;29.31;90.09;100631.84;4867332;29;20447;-86
2022/08/04 08:55:13;;;;;;;3.70;1.90;;;;;;;29.48;84.15;100621.69;4902601;29;20436;-84
2022/08/04 08:58:10;;;;;;;3.97;1.80;;;;;;;29.46;83.65;100617.75;4911672;29;20458;-84
2022/08/04 09:00:53;;;;;;;4.33;2.27;;;;;;;29.73;78.55;100622.72;4910565;29;20435;-85
2022/08/04 09:03:46;;;;;;;4.35;1.90;;;;;;;29.92;77.36;100624.97;4913721;29;20785;-86
2022/08/04 09:06:46;;;;;;;4.90;1.95;;;;;;;29.81;78.46;100618.66;4901251;29;21594;-83
2022/08/04 09:09:53;;;;;;;3.83;1.90;;;;;;;29.88;75.71;100618.59;4907113;29;20452;-86
2022/08/04 09:12:28;;;;;;;3.73;1.80;;;;;;;29.82;75.05;100614.63;4894431;29;20439;-84
2022/08/04 09:15:04;;;;;;;4.43;1.83;;;;;;;30.02;80.06;100618.47;4899405;29;20451;-86
2022/08/04 09:17:37;;;;;;;3.15;1.80;;;;;;;30.15;76.61;100618.75;4919496;29;20473;-85
2022/08/04 09:20:10;;;;;;;4.65;2.03;;;;;;;30.34;80.47;100610.91;4914844;29;20447;-86
2022/08/04 09:22:49;;;;;;;4.18;1.92;;;;;;;30.32;76.10;100610.56;4916052;29;20439;-86
2022/08/04 09:25:30;;;;;;;4.68;2.00;;;;;;;30.33;70.01;100612.16;4900690;29;20458;-86
2022/08/04 09:28:03;;;;;;;3.40;1.80;;;;;;;30.07;75.16;100611.63;4898696;29;20447;-85
2022/08/04 09:30:43;;;;;;;2.83;1.80;;;;;;;30.03;72.28;100608.84;4917162;29;20424;-84
2022/08/04 09:33:23;;;;;;;4.18;2.03;;;;;;;30.10;75.74;100607.97;4915509;29;20777;-85
2022/08/04 09:36:01;;;;;;;4.20;1.80;;;;;;;30.34;72.31;100602.50;4896396;29;20443;-85
2022/08/04 09:38:44;;;;;;;2.63;1.73;;;;;;;30.44;72.30;100592.38;4912167;29;21915;-86
2022/08/04 09:41:29;;;;;;;6.00;1.80;;;;;;;30.83;70.75;100605.16;4898636;29;20947;-84
2022/08/04 09:44:14;;;;;;;3.67;1.60;;;;;;;30.95;68.39;100600.94;4921604;29;20450;-86
2022/08/04 09:46:51;;;;;;;2.70;1.90;;;;;;;30.98;68.87;100598.09;4915494;29;20439;-85
2022/08/04 09:49:26;;;;;;;5.50;2.08;;;;;;;31.12;62.83;100601.97;4917451;29;20481;-85
2022/08/04 09:52:08;;;;;;;3.63;1.80;;;;;;;31.19;67.70;100608.25;4915671;29;20439;-86
2022/08/04 09:54:47;;;;;;;6.50;1.70;;;;;;;31.17;59.54;100591.03;4895340;29;20451;-87
2022/08/04 09:57:37;;;;;;;3.92;1.80;;;;;;;31.29;60.26;100595.25;4893952;29;20447;-85
2022/08/04 10:00:15;;;;;;;4.03;1.80;;;;;;;31.44;57.82;100586.63;4911373;29;20444;-86
2022/08/04 10:02:52;;;;;;;3.45;1.90;;;;;;;31.41;54.24;100584.66;4910252;29;21873;-85
2022/08/04 10:05:33;;;;;;;3.90;1.90;;;;;;;31.42;51.15;100586.22;4913596;29;20431;-85
2022/08/04 10:08:22;;;;;;;4.88;1.90;;;;;;;31.46;56.47;100587.78;4884856;29;20451;-86
2022/08/04 10:11:03;;;;;;;5.00;1.88;;;;;;;31.67;54.78;100581.00;4900134;29;20441;-86
2022/08/04 10:13:47;;;;;;;5.72;1.95;;;;;;;31.67;54.01;100589.47;4902210;29;20432;-86
2022/08/04 10:16:40;;;;;;;3.30;1.98;;;;;;;31.61;51.47;100590.38;4895870;29;20439;-84
2022/08/04 10:19:24;;;;;;;4.78;1.88;;;;;;;31.63;49.58;100582.31;4916126;29;20568;-84
2022/08/04 10:22:06;;;;;;;4.32;2.05;;;;;;;31.59;56.06;100579.56;4902856;29;20436;-83
2022/08/04 10:24:48;;;;;;;4.65;1.88;;;;;;;31.81;51.07;100577.16;4916306;29;20474;-84
2022/08/04 10:27:28;;;;;;;2.88;1.80;;;;;;;31.86;52.54;100571.03;4893393;29;20439;-85
2022/08/04 10:30:09;;;;;;;2.92;1.80;;;;;;;31.79;44.82;100561.94;4896647;29;20427;-84
2022/08/04 10:32:45;;;;;;;2.83;1.80;;;;;;;32.07;51.33;100563.41;4905414;29;20439;-83
2022/08/04 10:35:15;;;;;;;3.17;1.90;;;;;;;32.02;45.68;100561.09;4908243;29;20452;-87
2022/08/04 10:38:00;;;;;;;2.95;1.90;;;;;;;31.88;47.57;100562.94;4892949;29;20974;-84
2022/08/04 10:40:41;;;;;;;4.00;1.90;;;;;;;31.60;52.47;100572.72;4905711;29;20431;-85
2022/08/04 10:43:22;;;;;;;5.30;2.00;;;;;;;31.97;50.25;100551.16;4912452;29;20443;-84
2022/08/04 10:46:02;;;;;;;4.88;2.20;;;;;;;32.21;50.53;100534.22;4914712;29;20769;-84
2022/08/04 10:48:44;;;;;;;5.65;2.13;;;;;;;32.34;48.05;100548.44;4916770;29;20896;-86
2022/08/04 10:51:21;;;;;;;3.80;1.90;;;;;;;32.59;50.71;100542.25;4915056;29;20452;-85
2022/08/04 10:53:57;;;;;;;5.25;2.03;;;;;;;32.44;48.10;100536.16;4913105;29;21100;-86
2022/08/04 10:56:37;;;;;;;3.23;1.93;;;;;;;32.25;48.44;100540.56;4914277;29;20442;-85
2022/08/04 10:59:17;;;;;;;5.43;2.00;;;;;;;31.99;50.81;100545.88;4920121;29;20446;-84
2022/08/04 11:01:52;;;;;;;3.05;2.10;;;;;;;32.00;54.53;100539.00;4899039;29;21239;-84
2022/08/04 11:04:26;;;;;;;3.70;2.03;;;;;;;32.41;53.81;100527.78;4900066;29;20448;-85
2022/08/04 11:07:02;;;;;;;3.53;2.10;;;;;;;32.80;50.67;100524.13;4900701;29;20796;-84
2022/08/04 11:09:33;;;;;;;4.83;2.07;;;;;;;32.77;47.89;100513.69;4914323;29;20449;-83
2022/08/04 11:12:17;;;;;;;6.85;4.32;;;;;;;33.03;45.33;100506.25;4912400;29;20466;-86
2022/08/04 11:14:56;;;;;;;4.50;2.20;;;;;;;32.68;46.26;100507.88;4898648;29;20435;-85
2022/08/04 11:17:32;;;;;;;8.63;2.10;;;;;;;32.17;46.47;100527.88;4916594;29;20427;-84
2022/08/04 11:20:16;;;;;;;4.95;2.15;;;;;;;31.99;49.67;100525.38;4899548;29;20458;-83
2022/08/04 11:22:55;;;;;;;5.90;2.10;;;;;;;32.41;49.80;100517.28;4913051;29;20781;-83
2022/08/04 11:25:35;;;;;;;3.08;2.00;;;;;;;32.99;42.52;100516.03;4907097;29;20439;-83
2022/08/04 11:28:13;;;;;;;3.15;2.10;;;;;;;33.10;46.16;100510.13;4917755;29;20439;-83
2022/08/04 11:30:53;;;;;;;4.65;2.05;;;;;;;32.93;46.38;100512.16;4895545;29;20451;-83
2022/08/04 11:33:39;;;;;;;4.53;2.03;;;;;;;32.27;48.00;100506.34;4913433;29;20447;-84
2022/08/04 11:36:15;;;;;;;4.30;1.90;;;;;;;32.06;49.03;100508.34;4904749;29;20442;-83
2022/08/04 11:38:59;;;;;;;2.92;1.80;;;;;;;32.28;45.53;100507.94;4892975;29;20443;-83
2022/08/04 11:41:40;;;;;;;4.28;2.00;;;;;;;32.16;41.98;100510.16;4900129;29;21009;-81
2022/08/04 11:44:22;;;;;;;2.78;1.77;;;;;;;32.55;45.21;100513.38;4889829;29;20450;-84
2022/08/04 11:47:00;;;;;;;2.78;1.73;;;;;;;32.53;43.61;100502.53;4913694;29;20450;-83
2022/08/04 11:49:41;;;;;;;3.63;1.70;;;;;;;32.43;44.58;100506.41;4896618;29;20473;-83
2022/08/04 11:52:13;;;;;;;3.42;1.67;;;;;;;32.43;40.16;100495.13;4898762;29;20431;-82
2022/08/04 11:54:42;;;;;;;2.30;1.70;;;;;;;32.27;38.98;100498.69;4893698;29;20447;-84
2022/08/04 11:57:16;;;;;;;2.42;1.75;;;;;;;32.17;43.09;100500.50;4899245;29;20446;-84
2022/08/04 11:59:45;;;;;;;2.67;1.73;;;;;;;32.55;40.69;100499.28;4913602;29;20512;-82
2022/08/04 12:02:33;;;;;;;4.80;1.73;;;;;;;33.09;39.07;100500.88;4895626;29;20443;-85
2022/08/04 12:05:06;;;;;;;3.08;1.88;;;;;;;33.38;39.55;100491.72;4894741;29;20470;-82
2022/08/04 12:07:49;;;;;;;2.47;1.65;;;;;;;33.68;39.50;100479.22;4911271;29;21001;-83
2022/08/04 12:10:36;;;;;;;2.72;1.73;;;;;;;33.85;37.00;100485.66;4905693;29;21084;-83
2022/08/04 12:13:13;;;;;;;3.67;2.00;;;;;;;33.97;37.74;100484.09;4908260;29;20431;-83
2022/08/04 12:15:56;;;;;;;3.17;1.80;;;;;;;33.65;36.53;100490.63;4891260;29;20450;-82
2022/08/04 12:18:36;;;;;;;2.90;1.70;;;;;;;33.90;37.80;100484.28;4895032;29;20451;-83
2022/08/04 12:21:14;;;;;;;4.00;1.80;;;;;;;34.03;33.95;100485.13;4909529;29;20443;-85
2022/08/04 12:23:50;;;;;;;5.00;1.63;;;;;;;34.18;34.74;100477.03;4895530;29;20439;-83